Aérodrome :
LOGIN :

S'inscrire | Disclaimer

   EN    FR    IT 

 










Légende :    VFR   VFR Marginal   IFR   IFR Intensif   IFR Très Intensif
Visi : 
Plafond : 
>= 8 km
>= 3000ft
5 à 8 km
1000 à 3000 ft
1500m à 5 km
500 à 1000 ft
800 à 1500m
200 à 500 ft
< 800m
< 200 ft
Symboles :   Orages  Brouillard  Fortes neiges  Fortes précipitations  Vent > 20 kt
SIGMETs :   Divers  Orages  Givrage  Turbulence  Onde Orograph.  Cendres Volcan.







- Altitude de l'aérodrome : 32 ft
- Code IATA : LKZ


EGUL - RAF Lakenheath

METARs EXPIRÉS :
  • 221956Z 23004KT 9999 OVC010 01/M01 A2944 RMK AO2A SLP973 P0000 T00121006 $
  • 221950Z 23004KT 9999 OVC010 01/M01 A2945 RMK AO2A SLP976 $
  • 221935Z AUTO 24004KT 9999 BKN008 OVC015 02/00 A2945 RMK AO2 RAE1856RAB1856E35 CIG 008V017 BKN V SCT SLP976 $

TAF TAF EGUL
Valide du 22 à 20h jusqu'au 24 à 02h UTC


222003Z 2220/2402 22009KT 8000 -SHRA BKN010 610159 QNH2942INS
BECMG 2223/2224 24009KT 9999 NSW BKN015 610209 QNH2940INS
BECMG 2307/2308 31009KT 9999 SCT025 QNH2944INS
BECMG 2323/2324 30006KT 4800 BR SCT020 QNH2974INS TX03/2315Z TNM02/2306Z
Pas de NOTAMs connus pour ce terrain.



MET'MAP, la Météo Aéronautique d'un coup d'oeil ! - Copyright ORBIFLY Décembre 2007 - Disclaimer

ORBIFLY MET'MAP TEAM :

Programmation & Développement : Alexandra Zaïnal
Conception & Développement : Baudouin d'Aumeries
Co-Programmation & Développement : Marc-Olivier Méhu
Soutien technique & logistique : Manuel Goepfert

Contact : metmap@orbifly.com




SOURCES & CREDITS :

   NOAA